Terminal Aerodrome Forecast
Issued by NWS

Home | Current Version | Previous Version | Text Only | Print | Product List | Glossary On
Versions: 1 2 3 4 5 6 7 8 9 10 11 12 13 14 15 16 17
000
FTUS43 KICT 232331
TAFHUT
TAF
KHUT 232331Z 2400/2424 18015G22KT P6SM SCT070
     FM240100 16010KT P6SM SCT080
     FM241400 17012G18KT P6SM VCSH SCT015 BKN040=

USA.gov is the U.S. government's official web portal to all federal, state and local government web resources and services.